sensor_id;sensor_type;location;lat;lon;timestamp;temperature;humidity
78649;DHT22;67962;47.310;9.642;2023-07-28T00:02:22;17.20;67.30
78649;DHT22;67962;47.310;9.642;2023-07-28T00:04:47;17.20;67.30
78649;DHT22;67962;47.310;9.642;2023-07-28T00:07:13;17.20;67.30
78649;DHT22;67962;47.310;9.642;2023-07-28T00:09:39;17.20;66.90
78649;DHT22;67962;47.310;9.642;2023-07-28T00:12:05;17.20;66.80
78649;DHT22;67962;47.310;9.642;2023-07-28T00:14:31;17.10;67.00
78649;DHT22;67962;47.310;9.642;2023-07-28T00:16:57;17.10;67.10
78649;DHT22;67962;47.310;9.642;2023-07-28T00:19:23;17.10;66.60
78649;DHT22;67962;47.310;9.642;2023-07-28T00:21:49;17.10;66.70
78649;DHT22;67962;47.310;9.642;2023-07-28T00:24:15;17.20;66.60
78649;DHT22;67962;47.310;9.642;2023-07-28T00:26:41;17.20;66.60
78649;DHT22;67962;47.310;9.642;2023-07-28T00:29:07;17.20;66.60
78649;DHT22;67962;47.310;9.642;2023-07-28T00:31:33;17.20;66.80
78649;DHT22;67962;47.310;9.642;2023-07-28T00:33:59;17.10;66.80
78649;DHT22;67962;47.310;9.642;2023-07-28T00:36:25;17.10;67.00
78649;DHT22;67962;47.310;9.642;2023-07-28T00:38:51;17.10;67.40
78649;DHT22;67962;47.310;9.642;2023-07-28T00:41:16;17.00;67.60
78649;DHT22;67962;47.310;9.642;2023-07-28T00:43:42;16.80;67.40
78649;DHT22;67962;47.310;9.642;2023-07-28T00:46:09;16.80;68.50
78649;DHT22;67962;47.310;9.642;2023-07-28T00:48:35;16.80;67.90
78649;DHT22;67962;47.310;9.642;2023-07-28T00:51:01;16.80;67.90
78649;DHT22;67962;47.310;9.642;2023-07-28T00:53:27;16.90;67.80
78649;DHT22;67962;47.310;9.642;2023-07-28T00:55:54;16.80;67.60
78649;DHT22;67962;47.310;9.642;2023-07-28T00:58:21;16.70;68.00
78649;DHT22;67962;47.310;9.642;2023-07-28T01:00:47;16.70;68.40
78649;DHT22;67962;47.310;9.642;2023-07-28T01:03:14;16.70;68.70
78649;DHT22;67962;47.310;9.642;2023-07-28T01:06:02;16.70;68.90
78649;DHT22;67962;47.310;9.642;2023-07-28T01:11:22;16.70;69.00
78649;DHT22;67962;47.310;9.642;2023-07-28T01:13:48;16.70;68.60
78649;DHT22;67962;47.310;9.642;2023-07-28T01:16:14;16.70;68.60
78649;DHT22;67962;47.310;9.642;2023-07-28T01:18:40;16.70;68.80
78649;DHT22;67962;47.310;9.642;2023-07-28T01:21:09;16.60;68.90
78649;DHT22;67962;47.310;9.642;2023-07-28T01:23:55;16.60;69.00
78649;DHT22;67962;47.310;9.642;2023-07-28T01:26:36;16.60;69.00
78649;DHT22;67962;47.310;9.642;2023-07-28T01:29:03;16.50;69.30
78649;DHT22;67962;47.310;9.642;2023-07-28T01:31:30;16.50;69.00
78649;DHT22;67962;47.310;9.642;2023-07-28T01:33:56;16.50;69.20
78649;DHT22;67962;47.310;9.642;2023-07-28T01:36:22;16.50;69.20
78649;DHT22;67962;47.310;9.642;2023-07-28T01:38:48;16.50;69.00
78649;DHT22;67962;47.310;9.642;2023-07-28T01:41:13;16.60;68.70
78649;DHT22;67962;47.310;9.642;2023-07-28T01:43:39;16.60;68.50
78649;DHT22;67962;47.310;9.642;2023-07-28T01:46:05;16.70;68.50
78649;DHT22;67962;47.310;9.642;2023-07-28T01:48:30;16.80;68.40
78649;DHT22;67962;47.310;9.642;2023-07-28T01:50:56;16.80;68.10
78649;DHT22;67962;47.310;9.642;2023-07-28T01:53:22;16.80;67.80
78649;DHT22;67962;47.310;9.642;2023-07-28T01:55:47;16.90;67.60
78649;DHT22;67962;47.310;9.642;2023-07-28T01:58:13;16.90;67.10
78649;DHT22;67962;47.310;9.642;2023-07-28T02:00:39;16.90;67.40
78649;DHT22;67962;47.310;9.642;2023-07-28T02:03:04;16.90;67.40
78649;DHT22;67962;47.310;9.642;2023-07-28T02:05:31;16.90;67.20
78649;DHT22;67962;47.310;9.642;2023-07-28T02:07:57;17.00;66.80
78649;DHT22;67962;47.310;9.642;2023-07-28T02:10:23;17.00;66.30
78649;DHT22;67962;47.310;9.642;2023-07-28T02:12:49;17.10;66.20
78649;DHT22;67962;47.310;9.642;2023-07-28T02:15:16;17.20;66.00
78649;DHT22;67962;47.310;9.642;2023-07-28T02:17:42;17.30;65.60
78649;DHT22;67962;47.310;9.642;2023-07-28T02:20:08;17.40;65.60
78649;DHT22;67962;47.310;9.642;2023-07-28T02:22:38;17.50;65.50
78649;DHT22;67962;47.310;9.642;2023-07-28T02:25:04;17.60;64.90
78649;DHT22;67962;47.310;9.642;2023-07-28T02:27:30;17.70;64.60
78649;DHT22;67962;47.310;9.642;2023-07-28T02:29:56;17.70;64.80
78649;DHT22;67962;47.310;9.642;2023-07-28T02:32:21;17.80;65.20
78649;DHT22;67962;47.310;9.642;2023-07-28T02:34:47;17.80;65.30
78649;DHT22;67962;47.310;9.642;2023-07-28T02:37:15;17.80;64.70
78649;DHT22;67962;47.310;9.642;2023-07-28T02:39:40;17.80;65.00
78649;DHT22;67962;47.310;9.642;2023-07-28T02:42:06;17.80;65.00
78649;DHT22;67962;47.310;9.642;2023-07-28T02:44:32;17.90;65.20
78649;DHT22;67962;47.310;9.642;2023-07-28T02:46:57;17.90;64.90
78649;DHT22;67962;47.310;9.642;2023-07-28T02:49:23;18.00;64.60
78649;DHT22;67962;47.310;9.642;2023-07-28T02:51:49;18.00;64.60
78649;DHT22;67962;47.310;9.642;2023-07-28T02:54:15;18.00;64.60
78649;DHT22;67962;47.310;9.642;2023-07-28T02:56:40;17.90;65.00
78649;DHT22;67962;47.310;9.642;2023-07-28T02:59:06;17.80;65.60
78649;DHT22;67962;47.310;9.642;2023-07-28T03:01:32;17.80;66.10
78649;DHT22;67962;47.310;9.642;2023-07-28T03:04:02;17.90;66.40
78649;DHT22;67962;47.310;9.642;2023-07-28T03:06:28;17.80;66.10
78649;DHT22;67962;47.310;9.642;2023-07-28T03:08:54;17.90;65.30
78649;DHT22;67962;47.310;9.642;2023-07-28T03:11:20;17.90;65.10
78649;DHT22;67962;47.310;9.642;2023-07-28T03:13:46;17.90;64.70
78649;DHT22;67962;47.310;9.642;2023-07-28T03:16:11;17.90;64.70
78649;DHT22;67962;47.310;9.642;2023-07-28T03:18:37;17.90;64.70
78649;DHT22;67962;47.310;9.642;2023-07-28T03:21:03;17.90;64.40
78649;DHT22;67962;47.310;9.642;2023-07-28T03:23:29;17.90;64.70
78649;DHT22;67962;47.310;9.642;2023-07-28T03:25:54;17.90;64.40
78649;DHT22;67962;47.310;9.642;2023-07-28T03:28:20;17.90;64.90
78649;DHT22;67962;47.310;9.642;2023-07-28T03:30:46;18.00;64.50
78649;DHT22;67962;47.310;9.642;2023-07-28T03:33:12;18.00;64.20
78649;DHT22;67962;47.310;9.642;2023-07-28T03:35:37;18.10;64.30
78649;DHT22;67962;47.310;9.642;2023-07-28T03:38:03;18.10;64.60
78649;DHT22;67962;47.310;9.642;2023-07-28T03:40:29;18.20;64.70
78649;DHT22;67962;47.310;9.642;2023-07-28T03:42:54;18.20;64.70
78649;DHT22;67962;47.310;9.642;2023-07-28T03:45:20;18.20;64.80
78649;DHT22;67962;47.310;9.642;2023-07-28T03:47:46;18.20;65.20
78649;DHT22;67962;47.310;9.642;2023-07-28T03:50:12;18.20;65.20
78649;DHT22;67962;47.310;9.642;2023-07-28T03:52:37;18.20;65.30
78649;DHT22;67962;47.310;9.642;2023-07-28T03:55:03;18.20;65.70
78649;DHT22;67962;47.310;9.642;2023-07-28T03:57:29;18.20;65.80
78649;DHT22;67962;47.310;9.642;2023-07-28T03:59:55;18.20;65.30
78649;DHT22;67962;47.310;9.642;2023-07-28T04:02:21;18.30;65.60
78649;DHT22;67962;47.310;9.642;2023-07-28T04:04:46;18.20;65.40
78649;DHT22;67962;47.310;9.642;2023-07-28T04:07:12;18.30;65.30
78649;DHT22;67962;47.310;9.642;2023-07-28T04:09:38;18.30;65.40
78649;DHT22;67962;47.310;9.642;2023-07-28T04:12:04;18.30;66.00
78649;DHT22;67962;47.310;9.642;2023-07-28T04:14:29;18.20;66.40
78649;DHT22;67962;47.310;9.642;2023-07-28T04:16:55;18.30;66.40
78649;DHT22;67962;47.310;9.642;2023-07-28T04:19:21;18.30;66.20
78649;DHT22;67962;47.310;9.642;2023-07-28T04:21:46;18.40;66.10
78649;DHT22;67962;47.310;9.642;2023-07-28T04:24:12;18.40;66.20
78649;DHT22;67962;47.310;9.642;2023-07-28T04:26:38;18.40;66.70
78649;DHT22;67962;47.310;9.642;2023-07-28T04:29:03;18.30;67.20
78649;DHT22;67962;47.310;9.642;2023-07-28T04:31:29;18.20;68.00
78649;DHT22;67962;47.310;9.642;2023-07-28T04:33:55;18.10;68.10
78649;DHT22;67962;47.310;9.642;2023-07-28T04:36:21;18.10;68.30
78649;DHT22;67962;47.310;9.642;2023-07-28T04:38:46;18.10;68.40
78649;DHT22;67962;47.310;9.642;2023-07-28T04:41:12;18.10;68.30
78649;DHT22;67962;47.310;9.642;2023-07-28T04:43:38;18.10;68.60
78649;DHT22;67962;47.310;9.642;2023-07-28T04:46:03;18.20;68.80
78649;DHT22;67962;47.310;9.642;2023-07-28T04:48:29;18.10;70.70
78649;DHT22;67962;47.310;9.642;2023-07-28T04:50:55;18.10;70.60
78649;DHT22;67962;47.310;9.642;2023-07-28T04:53:20;18.10;70.70
78649;DHT22;67962;47.310;9.642;2023-07-28T04:55:46;18.10;70.60
78649;DHT22;67962;47.310;9.642;2023-07-28T04:58:12;18.20;70.60
78649;DHT22;67962;47.310;9.642;2023-07-28T05:00:37;18.30;70.60
78649;DHT22;67962;47.310;9.642;2023-07-28T05:03:03;18.30;70.50
78649;DHT22;67962;47.310;9.642;2023-07-28T05:05:29;18.40;70.40
78649;DHT22;67962;47.310;9.642;2023-07-28T05:07:55;18.50;71.30
78649;DHT22;67962;47.310;9.642;2023-07-28T05:10:21;18.50;72.20
78649;DHT22;67962;47.310;9.642;2023-07-28T05:12:46;18.30;72.30
78649;DHT22;67962;47.310;9.642;2023-07-28T05:15:14;18.30;72.90
78649;DHT22;67962;47.310;9.642;2023-07-28T05:17:40;18.20;72.80
78649;DHT22;67962;47.310;9.642;2023-07-28T05:20:06;18.30;73.00
78649;DHT22;67962;47.310;9.642;2023-07-28T05:22:32;18.30;73.00
78649;DHT22;67962;47.310;9.642;2023-07-28T05:24:58;18.40;73.30
78649;DHT22;67962;47.310;9.642;2023-07-28T05:27:24;18.40;73.60
78649;DHT22;67962;47.310;9.642;2023-07-28T05:29:50;18.40;73.70
78649;DHT22;67962;47.310;9.642;2023-07-28T05:32:16;18.40;74.00
78649;DHT22;67962;47.310;9.642;2023-07-28T05:34:44;18.40;74.00
78649;DHT22;67962;47.310;9.642;2023-07-28T05:37:10;18.30;74.40
78649;DHT22;67962;47.310;9.642;2023-07-28T05:39:36;18.30;74.60
78649;DHT22;67962;47.310;9.642;2023-07-28T05:42:02;18.20;74.40
78649;DHT22;67962;47.310;9.642;2023-07-28T05:44:28;18.40;74.70
78649;DHT22;67962;47.310;9.642;2023-07-28T05:46:54;18.50;74.50
78649;DHT22;67962;47.310;9.642;2023-07-28T05:49:20;18.70;74.40
78649;DHT22;67962;47.310;9.642;2023-07-28T05:51:46;18.60;74.20
78649;DHT22;67962;47.310;9.642;2023-07-28T05:54:14;18.60;74.20
78649;DHT22;67962;47.310;9.642;2023-07-28T05:56:41;18.70;74.20
78649;DHT22;67962;47.310;9.642;2023-07-28T05:59:06;18.80;74.20
78649;DHT22;67962;47.310;9.642;2023-07-28T06:01:32;18.80;74.20
78649;DHT22;67962;47.310;9.642;2023-07-28T06:03:58;18.90;74.90
78649;DHT22;67962;47.310;9.642;2023-07-28T06:06:27;18.90;74.10
78649;DHT22;67962;47.310;9.642;2023-07-28T06:08:53;18.90;74.30
78649;DHT22;67962;47.310;9.642;2023-07-28T06:11:20;18.90;74.00
78649;DHT22;67962;47.310;9.642;2023-07-28T06:13:46;19.00;73.90
78649;DHT22;67962;47.310;9.642;2023-07-28T06:16:13;19.00;74.00
78649;DHT22;67962;47.310;9.642;2023-07-28T06:18:38;19.00;74.30
78649;DHT22;67962;47.310;9.642;2023-07-28T06:21:04;19.00;74.40
78649;DHT22;67962;47.310;9.642;2023-07-28T06:23:30;19.00;74.40
78649;DHT22;67962;47.310;9.642;2023-07-28T06:25:55;19.10;74.80
78649;DHT22;67962;47.310;9.642;2023-07-28T06:28:21;19.00;74.80
78649;DHT22;67962;47.310;9.642;2023-07-28T06:30:47;19.00;75.40
78649;DHT22;67962;47.310;9.642;2023-07-28T06:33:13;18.90;75.90
78649;DHT22;67962;47.310;9.642;2023-07-28T06:35:39;18.80;75.70
78649;DHT22;67962;47.310;9.642;2023-07-28T06:38:04;18.90;75.70
78649;DHT22;67962;47.310;9.642;2023-07-28T06:40:30;18.90;75.60
78649;DHT22;67962;47.310;9.642;2023-07-28T06:42:56;18.90;75.60
78649;DHT22;67962;47.310;9.642;2023-07-28T06:45:21;19.00;75.20
78649;DHT22;67962;47.310;9.642;2023-07-28T06:47:47;19.10;74.80
78649;DHT22;67962;47.310;9.642;2023-07-28T06:50:14;19.10;75.10
78649;DHT22;67962;47.310;9.642;2023-07-28T06:52:40;19.20;75.30
78649;DHT22;67962;47.310;9.642;2023-07-28T06:55:06;19.20;75.10
78649;DHT22;67962;47.310;9.642;2023-07-28T06:57:31;19.30;74.90
78649;DHT22;67962;47.310;9.642;2023-07-28T06:59:57;19.40;74.60
78649;DHT22;67962;47.310;9.642;2023-07-28T07:02:23;19.40;74.50
78649;DHT22;67962;47.310;9.642;2023-07-28T07:04:49;19.60;74.40
78649;DHT22;67962;47.310;9.642;2023-07-28T07:07:14;19.60;74.10
78649;DHT22;67962;47.310;9.642;2023-07-28T07:09:40;19.70;74.00
78649;DHT22;67962;47.310;9.642;2023-07-28T07:12:08;19.70;74.00
78649;DHT22;67962;47.310;9.642;2023-07-28T07:14:34;19.70;74.50
78649;DHT22;67962;47.310;9.642;2023-07-28T07:17:00;19.60;75.00
78649;DHT22;67962;47.310;9.642;2023-07-28T07:19:27;19.50;75.30
78649;DHT22;67962;47.310;9.642;2023-07-28T07:21:53;19.50;75.50
78649;DHT22;67962;47.310;9.642;2023-07-28T07:24:18;19.50;75.60
78649;DHT22;67962;47.310;9.642;2023-07-28T07:26:44;19.50;75.60
78649;DHT22;67962;47.310;9.642;2023-07-28T07:29:10;19.60;75.80
78649;DHT22;67962;47.310;9.642;2023-07-28T07:31:36;19.70;75.20
78649;DHT22;67962;47.310;9.642;2023-07-28T07:34:02;19.80;74.30
78649;DHT22;67962;47.310;9.642;2023-07-28T07:36:29;20.00;74.30
78649;DHT22;67962;47.310;9.642;2023-07-28T07:38:55;20.20;73.90
78649;DHT22;67962;47.310;9.642;2023-07-28T07:41:22;20.30;73.30
78649;DHT22;67962;47.310;9.642;2023-07-28T07:43:49;20.40;72.70
78649;DHT22;67962;47.310;9.642;2023-07-28T07:46:15;20.60;72.90
78649;DHT22;67962;47.310;9.642;2023-07-28T07:48:41;20.70;72.80
78649;DHT22;67962;47.310;9.642;2023-07-28T07:51:08;20.80;72.70
78649;DHT22;67962;47.310;9.642;2023-07-28T07:53:34;20.80;72.80
78649;DHT22;67962;47.310;9.642;2023-07-28T07:56:04;20.70;73.40
78649;DHT22;67962;47.310;9.642;2023-07-28T07:58:30;20.60;73.90
78649;DHT22;67962;47.310;9.642;2023-07-28T08:00:56;20.70;73.80
78649;DHT22;67962;47.310;9.642;2023-07-28T08:03:21;20.80;72.90
78649;DHT22;67962;47.310;9.642;2023-07-28T08:05:47;20.80;72.90
78649;DHT22;67962;47.310;9.642;2023-07-28T08:08:13;20.90;72.90
78649;DHT22;67962;47.310;9.642;2023-07-28T08:10:43;20.90;72.50
78649;DHT22;67962;47.310;9.642;2023-07-28T08:13:08;20.90;72.40
78649;DHT22;67962;47.310;9.642;2023-07-28T08:15:34;21.00;72.70
78649;DHT22;67962;47.310;9.642;2023-07-28T08:18:00;21.10;72.30
78649;DHT22;67962;47.310;9.642;2023-07-28T08:20:25;21.10;71.20
78649;DHT22;67962;47.310;9.642;2023-07-28T08:22:52;21.20;71.30
78649;DHT22;67962;47.310;9.642;2023-07-28T08:25:17;21.30;71.20
78649;DHT22;67962;47.310;9.642;2023-07-28T08:27:44;21.40;71.60
78649;DHT22;67962;47.310;9.642;2023-07-28T08:30:10;21.50;71.20
78649;DHT22;67962;47.310;9.642;2023-07-28T08:32:36;21.50;70.80
78649;DHT22;67962;47.310;9.642;2023-07-28T08:35:02;21.80;70.30
78649;DHT22;67962;47.310;9.642;2023-07-28T08:37:29;22.00;67.30
78649;DHT22;67962;47.310;9.642;2023-07-28T08:39:54;22.30;67.00
78649;DHT22;67962;47.310;9.642;2023-07-28T08:42:21;22.50;67.00
78649;DHT22;67962;47.310;9.642;2023-07-28T08:44:50;23.00;67.00
78649;DHT22;67962;47.310;9.642;2023-07-28T08:47:18;23.40;65.70
78649;DHT22;67962;47.310;9.642;2023-07-28T08:49:44;23.30;65.20
78649;DHT22;67962;47.310;9.642;2023-07-28T08:52:10;23.50;65.40
78649;DHT22;67962;47.310;9.642;2023-07-28T08:54:36;24.00;64.80
78649;DHT22;67962;47.310;9.642;2023-07-28T08:57:01;24.30;63.30
78649;DHT22;67962;47.310;9.642;2023-07-28T08:59:29;24.50;61.60
78649;DHT22;67962;47.310;9.642;2023-07-28T09:01:56;24.70;61.20
78649;DHT22;67962;47.310;9.642;2023-07-28T09:04:26;25.00;59.90
78649;DHT22;67962;47.310;9.642;2023-07-28T09:06:51;25.10;58.60
78649;DHT22;67962;47.310;9.642;2023-07-28T09:09:20;25.20;57.70
78649;DHT22;67962;47.310;9.642;2023-07-28T09:11:52;25.40;56.50
78649;DHT22;67962;47.310;9.642;2023-07-28T09:14:20;25.40;54.90
78649;DHT22;67962;47.310;9.642;2023-07-28T09:16:46;25.60;52.60
78649;DHT22;67962;47.310;9.642;2023-07-28T09:19:12;26.00;54.40
78649;DHT22;67962;47.310;9.642;2023-07-28T09:21:41;26.50;53.70
78649;DHT22;67962;47.310;9.642;2023-07-28T09:24:09;26.70;52.00
78649;DHT22;67962;47.310;9.642;2023-07-28T09:26:40;26.80;50.00
78649;DHT22;67962;47.310;9.642;2023-07-28T09:29:17;27.00;49.40
78649;DHT22;67962;47.310;9.642;2023-07-28T09:31:43;27.40;50.50
78649;DHT22;67962;47.310;9.642;2023-07-28T09:34:25;27.80;49.20
78649;DHT22;67962;47.310;9.642;2023-07-28T09:36:59;28.10;49.70
78649;DHT22;67962;47.310;9.642;2023-07-28T09:39:25;28.50;48.30
78649;DHT22;67962;47.310;9.642;2023-07-28T09:41:51;28.40;48.30
78649;DHT22;67962;47.310;9.642;2023-07-28T09:44:18;28.40;48.10
78649;DHT22;67962;47.310;9.642;2023-07-28T09:46:57;28.30;49.00
78649;DHT22;67962;47.310;9.642;2023-07-28T09:49:37;28.10;48.00
78649;DHT22;67962;47.310;9.642;2023-07-28T09:52:06;27.90;49.90
78649;DHT22;67962;47.310;9.642;2023-07-28T09:54:43;28.00;49.90
78649;DHT22;67962;47.310;9.642;2023-07-28T09:57:19;28.20;49.40
78649;DHT22;67962;47.310;9.642;2023-07-28T09:59:47;28.10;50.20
78649;DHT22;67962;47.310;9.642;2023-07-28T10:02:13;28.00;50.90
78649;DHT22;67962;47.310;9.642;2023-07-28T10:04:40;28.00;49.00
78649;DHT22;67962;47.310;9.642;2023-07-28T10:07:07;28.00;50.10
78649;DHT22;67962;47.310;9.642;2023-07-28T10:09:33;28.10;46.70
78649;DHT22;67962;47.310;9.642;2023-07-28T10:12:00;27.90;46.40
78649;DHT22;67962;47.310;9.642;2023-07-28T10:14:34;27.80;47.00
78649;DHT22;67962;47.310;9.642;2023-07-28T10:17:04;27.90;46.50
78649;DHT22;67962;47.310;9.642;2023-07-28T10:19:34;27.80;45.20
78649;DHT22;67962;47.310;9.642;2023-07-28T10:22:08;27.90;45.20
78649;DHT22;67962;47.310;9.642;2023-07-28T10:24:53;28.00;44.50
78649;DHT22;67962;47.310;9.642;2023-07-28T10:27:36;28.10;45.60
78649;DHT22;67962;47.310;9.642;2023-07-28T10:30:04;28.00;44.70
78649;DHT22;67962;47.310;9.642;2023-07-28T10:32:40;27.80;44.00
78649;DHT22;67962;47.310;9.642;2023-07-28T10:37:40;27.70;45.10
78649;DHT22;67962;47.310;9.642;2023-07-28T10:40:32;27.90;46.50
78649;DHT22;67962;47.310;9.642;2023-07-28T10:43:02;28.10;45.10
78649;DHT22;67962;47.310;9.642;2023-07-28T10:45:30;28.20;44.20
78649;DHT22;67962;47.310;9.642;2023-07-28T10:47:57;28.30;44.70
78649;DHT22;67962;47.310;9.642;2023-07-28T10:50:29;28.70;45.10
78649;DHT22;67962;47.310;9.642;2023-07-28T10:52:55;28.80;43.30
78649;DHT22;67962;47.310;9.642;2023-07-28T10:55:25;29.00;44.80
78649;DHT22;67962;47.310;9.642;2023-07-28T10:57:52;29.40;42.90
78649;DHT22;67962;47.310;9.642;2023-07-28T11:00:20;29.50;41.70
78649;DHT22;67962;47.310;9.642;2023-07-28T11:02:53;29.50;42.20
78649;DHT22;67962;47.310;9.642;2023-07-28T11:05:30;29.60;41.30
78649;DHT22;67962;47.310;9.642;2023-07-28T11:08:00;29.70;40.60
78649;DHT22;67962;47.310;9.642;2023-07-28T11:10:30;29.70;42.10
78649;DHT22;67962;47.310;9.642;2023-07-28T11:12:59;29.80;41.60
78649;DHT22;67962;47.310;9.642;2023-07-28T11:15:25;30.10;41.20
78649;DHT22;67962;47.310;9.642;2023-07-28T11:17:52;30.10;40.80
78649;DHT22;67962;47.310;9.642;2023-07-28T11:20:24;30.10;40.70
78649;DHT22;67962;47.310;9.642;2023-07-28T11:23:00;29.90;37.70
78649;DHT22;67962;47.310;9.642;2023-07-28T11:25:28;29.50;40.10
78649;DHT22;67962;47.310;9.642;2023-07-28T11:27:54;29.30;41.00
78649;DHT22;67962;47.310;9.642;2023-07-28T11:30:23;29.20;41.50
78649;DHT22;67962;47.310;9.642;2023-07-28T11:32:51;29.20;40.70
78649;DHT22;67962;47.310;9.642;2023-07-28T11:35:18;29.00;40.80
78649;DHT22;67962;47.310;9.642;2023-07-28T11:37:47;28.90;41.10
78649;DHT22;67962;47.310;9.642;2023-07-28T11:40:21;28.90;40.90
78649;DHT22;67962;47.310;9.642;2023-07-28T11:42:50;28.90;41.80
78649;DHT22;67962;47.310;9.642;2023-07-28T11:45:18;28.90;43.00
78649;DHT22;67962;47.310;9.642;2023-07-28T11:47:55;29.00;41.90
78649;DHT22;67962;47.310;9.642;2023-07-28T11:50:26;29.10;42.20
78649;DHT22;67962;47.310;9.642;2023-07-28T11:52:52;29.20;42.00
78649;DHT22;67962;47.310;9.642;2023-07-28T11:55:18;29.40;42.70
78649;DHT22;67962;47.310;9.642;2023-07-28T11:57:44;29.40;42.00
78649;DHT22;67962;47.310;9.642;2023-07-28T12:00:10;29.20;42.00
78649;DHT22;67962;47.310;9.642;2023-07-28T12:02:38;29.00;41.30
78649;DHT22;67962;47.310;9.642;2023-07-28T12:05:15;29.00;40.90
78649;DHT22;67962;47.310;9.642;2023-07-28T12:07:46;29.00;41.90
78649;DHT22;67962;47.310;9.642;2023-07-28T12:10:12;29.30;42.70
78649;DHT22;67962;47.310;9.642;2023-07-28T12:12:45;29.30;42.30
78649;DHT22;67962;47.310;9.642;2023-07-28T12:15:25;29.30;41.40
78649;DHT22;67962;47.310;9.642;2023-07-28T12:18:13;29.20;41.20
78649;DHT22;67962;47.310;9.642;2023-07-28T12:23:07;29.20;41.90
78649;DHT22;67962;47.310;9.642;2023-07-28T12:25:37;29.10;40.60
78649;DHT22;67962;47.310;9.642;2023-07-28T12:28:03;28.90;41.60
78649;DHT22;67962;47.310;9.642;2023-07-28T12:30:29;28.70;42.20
78649;DHT22;67962;47.310;9.642;2023-07-28T12:32:55;28.70;42.70
78649;DHT22;67962;47.310;9.642;2023-07-28T12:35:21;28.70;43.70
78649;DHT22;67962;47.310;9.642;2023-07-28T12:37:51;28.60;44.80
78649;DHT22;67962;47.310;9.642;2023-07-28T12:40:18;28.60;44.30
78649;DHT22;67962;47.310;9.642;2023-07-28T12:42:45;28.70;45.20
78649;DHT22;67962;47.310;9.642;2023-07-28T12:45:11;29.00;45.20
78649;DHT22;67962;47.310;9.642;2023-07-28T12:47:38;29.40;42.20
78649;DHT22;67962;47.310;9.642;2023-07-28T12:50:04;29.60;41.40
78649;DHT22;67962;47.310;9.642;2023-07-28T12:52:32;29.80;41.90
78649;DHT22;67962;47.310;9.642;2023-07-28T12:54:57;29.80;40.00
78649;DHT22;67962;47.310;9.642;2023-07-28T12:57:24;29.80;40.40
78649;DHT22;67962;47.310;9.642;2023-07-28T12:59:50;29.90;40.90
78649;DHT22;67962;47.310;9.642;2023-07-28T13:02:17;30.00;41.40
78649;DHT22;67962;47.310;9.642;2023-07-28T13:04:43;30.00;42.80
78649;DHT22;67962;47.310;9.642;2023-07-28T13:07:09;29.80;42.60
78649;DHT22;67962;47.310;9.642;2023-07-28T13:09:35;29.80;41.90
78649;DHT22;67962;47.310;9.642;2023-07-28T13:12:00;29.70;42.60
78649;DHT22;67962;47.310;9.642;2023-07-28T13:14:26;29.50;42.90
78649;DHT22;67962;47.310;9.642;2023-07-28T13:16:52;29.50;42.40
78649;DHT22;67962;47.310;9.642;2023-07-28T13:19:18;29.40;41.00
78649;DHT22;67962;47.310;9.642;2023-07-28T13:21:44;29.50;42.50
78649;DHT22;67962;47.310;9.642;2023-07-28T13:24:09;29.60;41.30
78649;DHT22;67962;47.310;9.642;2023-07-28T13:26:35;29.50;41.40
78649;DHT22;67962;47.310;9.642;2023-07-28T13:29:01;29.40;42.00
78649;DHT22;67962;47.310;9.642;2023-07-28T13:31:28;29.30;42.30
78649;DHT22;67962;47.310;9.642;2023-07-28T13:33:54;29.00;43.80
78649;DHT22;67962;47.310;9.642;2023-07-28T13:36:20;28.80;40.80
78649;DHT22;67962;47.310;9.642;2023-07-28T13:38:45;28.90;41.80
78649;DHT22;67962;47.310;9.642;2023-07-28T13:41:11;29.20;41.60
78649;DHT22;67962;47.310;9.642;2023-07-28T13:43:37;29.40;42.40
78649;DHT22;67962;47.310;9.642;2023-07-28T13:46:07;29.70;42.70
78649;DHT22;67962;47.310;9.642;2023-07-28T13:48:33;29.80;42.20
78649;DHT22;67962;47.310;9.642;2023-07-28T13:50:59;29.80;40.30
78649;DHT22;67962;47.310;9.642;2023-07-28T13:53:25;29.60;39.70
78649;DHT22;67962;47.310;9.642;2023-07-28T13:55:51;29.50;40.70
78649;DHT22;67962;47.310;9.642;2023-07-28T13:58:17;29.60;41.00
78649;DHT22;67962;47.310;9.642;2023-07-28T14:00:43;29.60;43.40
78649;DHT22;67962;47.310;9.642;2023-07-28T14:03:09;29.50;43.80
78649;DHT22;67962;47.310;9.642;2023-07-28T14:05:35;29.60;42.70
78649;DHT22;67962;47.310;9.642;2023-07-28T14:08:01;29.70;42.90
78649;DHT22;67962;47.310;9.642;2023-07-28T14:10:27;29.60;43.50
78649;DHT22;67962;47.310;9.642;2023-07-28T14:12:53;29.60;42.90
78649;DHT22;67962;47.310;9.642;2023-07-28T14:15:18;29.60;42.40
78649;DHT22;67962;47.310;9.642;2023-07-28T14:17:44;29.60;42.30
78649;DHT22;67962;47.310;9.642;2023-07-28T14:20:10;29.60;42.00
78649;DHT22;67962;47.310;9.642;2023-07-28T14:22:37;29.50;42.40
78649;DHT22;67962;47.310;9.642;2023-07-28T14:25:03;29.50;40.50
78649;DHT22;67962;47.310;9.642;2023-07-28T14:27:29;29.60;41.40
78649;DHT22;67962;47.310;9.642;2023-07-28T14:29:55;29.60;38.80
78649;DHT22;67962;47.310;9.642;2023-07-28T14:32:21;29.50;39.80
78649;DHT22;67962;47.310;9.642;2023-07-28T14:34:47;29.50;39.60
78649;DHT22;67962;47.310;9.642;2023-07-28T14:37:13;29.60;40.70
78649;DHT22;67962;47.310;9.642;2023-07-28T14:39:39;29.50;40.80
78649;DHT22;67962;47.310;9.642;2023-07-28T14:42:05;29.40;41.80
78649;DHT22;67962;47.310;9.642;2023-07-28T14:44:30;29.50;41.20
78649;DHT22;67962;47.310;9.642;2023-07-28T14:46:56;29.60;41.20
78649;DHT22;67962;47.310;9.642;2023-07-28T14:49:22;29.60;42.20
78649;DHT22;67962;47.310;9.642;2023-07-28T14:51:48;29.60;41.20
78649;DHT22;67962;47.310;9.642;2023-07-28T14:54:13;29.60;39.90
78649;DHT22;67962;47.310;9.642;2023-07-28T14:56:39;29.60;41.90
78649;DHT22;67962;47.310;9.642;2023-07-28T14:59:05;29.70;41.60
78649;DHT22;67962;47.310;9.642;2023-07-28T15:01:31;29.80;41.40
78649;DHT22;67962;47.310;9.642;2023-07-28T15:03:58;29.80;41.80
78649;DHT22;67962;47.310;9.642;2023-07-28T15:06:24;29.70;41.90
78649;DHT22;67962;47.310;9.642;2023-07-28T15:08:50;29.60;40.70
78649;DHT22;67962;47.310;9.642;2023-07-28T15:11:16;29.50;41.80
78649;DHT22;67962;47.310;9.642;2023-07-28T15:13:43;29.30;42.00
78649;DHT22;67962;47.310;9.642;2023-07-28T15:16:10;29.40;42.90
78649;DHT22;67962;47.310;9.642;2023-07-28T15:18:35;29.50;42.90
78649;DHT22;67962;47.310;9.642;2023-07-28T15:21:01;29.40;43.30
78649;DHT22;67962;47.310;9.642;2023-07-28T15:23:28;29.30;42.40
78649;DHT22;67962;47.310;9.642;2023-07-28T15:25:53;29.30;42.60
78649;DHT22;67962;47.310;9.642;2023-07-28T15:28:23;29.20;43.00
78649;DHT22;67962;47.310;9.642;2023-07-28T15:30:49;29.20;40.70
78649;DHT22;67962;47.310;9.642;2023-07-28T15:33:18;29.00;40.90
78649;DHT22;67962;47.310;9.642;2023-07-28T15:35:44;29.00;42.70
78649;DHT22;67962;47.310;9.642;2023-07-28T15:38:10;28.90;43.40